Aérodrome :
LOGIN :

S'inscrire | Disclaimer

   EN    FR    IT 

 










Légende :    VFR   VFR Marginal   IFR   IFR Intensif   IFR Très Intensif
Visi : 
Plafond : 
>= 8 km
>= 3000ft
5 à 8 km
1000 à 3000 ft
1500m à 5 km
500 à 1000 ft
800 à 1500m
200 à 500 ft
< 800m
< 200 ft
Symboles :   Orages  Brouillard  Fortes neiges  Fortes précipitations  Vent > 20 kt
SIGMETs :   Divers  Orages  Givrage  Turbulence  Onde Orograph.  Cendres Volcan.






- Altitude de l'aérodrome : 37 ft
- Code IATA : FRO


ENFL - Florø

DERNIER METAR :
  • 130620Z 11011KT 9999 -DZ FEW007 SCT012 BKN020 12/10 Q1018

METARs EXPIRÉS :
  • 130550Z 10009KT 9000 -DZ FEW006 SCT012 BKN022 12/10 Q1018
  • 130520Z 09009KT 9999 VCSH FEW008 SCT015 BKN028 11/10 Q1018
  • 130450Z 08009KT 9999 FEW007 SCT015 BKN028 11/10 Q1018
  • 130420Z 08009KT 9999 FEW006 SCT015 BKN032 11/10 Q1019
  • 130350Z 09006KT 9999 FEW005 SCT015 BKN032 11/09 Q1019

TAF TAF ENFL
Valide du 13 à 06h jusqu'au 13 à 15h UTC


130500Z 1306/1315 09010KT 9999 FEW015 BKN030
TEMPO 1306/1315 4000 DZRA BR BKN008



MET'MAP, la Météo Aéronautique d'un coup d'oeil ! - Copyright ORBIFLY Décembre 2007 - Disclaimer

ORBIFLY MET'MAP TEAM :

Programmation & Développement : Alexandra Zaïnal
Sur une idée originale de : Baudouin d'Aumeries
Assistance à la programmation : Marc-Olivier Méhu
Soutien technique & logistique : Manuel Goepfert

Contact : metmap@orbifly.com




SOURCES & CREDITS :

   NOAA